Time;durP1;ratioP1;P1;durP2;ratioP2;P2;SDS_P1;SDS_P2;PMS_P1;PMS_P2;Temp;Humidity;BMP_temperature;BMP_pressure;BME280_temperature;BME280_humidity;BME280_pressure;Samples;Min_cycle;Max_cycle;Signal;HPM_P1;HPM_P2
2021/04/08 00:01:54;;;;;;;5.25;1.63;;;2.90;98.20;;;;;;4971535;28;20023;-70
2021/04/08 00:04:19;;;;;;;4.68;1.45;;;2.90;98.00;;;;;;4971687;28;20112;-70
2021/04/08 00:06:45;;;;;;;7.68;1.50;;;2.90;98.00;;;;;;4971507;28;20474;-70
2021/04/08 00:09:10;;;;;;;8.60;1.70;;;2.90;98.30;;;;;;4971480;28;20093;-70
2021/04/08 00:11:36;;;;;;;8.65;1.48;;;2.80;98.60;;;;;;4971340;28;20080;-70
2021/04/08 00:14:01;;;;;;;8.40;1.65;;;2.80;98.40;;;;;;4971890;28;20035;-69
2021/04/08 00:16:27;;;;;;;7.18;1.60;;;2.90;98.20;;;;;;4971633;28;20027;-70
2021/04/08 00:18:52;;;;;;;8.95;1.30;;;2.80;98.20;;;;;;4971617;28;20121;-70
2021/04/08 00:21:18;;;;;;;7.53;1.33;;;2.80;98.50;;;;;;4971401;28;20030;-70
2021/04/08 00:23:44;;;;;;;6.40;1.65;;;2.80;98.30;;;;;;4971578;28;20110;-70
2021/04/08 00:26:09;;;;;;;9.15;2.13;;;2.80;98.10;;;;;;4964244;28;20032;-70
2021/04/08 00:28:35;;;;;;;8.68;1.77;;;2.80;98.20;;;;;;4952155;29;20474;-70
2021/04/08 00:31:00;;;;;;;7.60;1.58;;;2.80;98.40;;;;;;4952127;29;20106;-70
2021/04/08 00:33:26;;;;;;;8.65;2.03;;;2.80;98.50;;;;;;4951693;28;20062;-70
2021/04/08 00:35:51;;;;;;;9.43;2.00;;;2.80;98.30;;;;;;4951265;29;20493;-70
2021/04/08 00:38:17;;;;;;;8.68;2.03;;;2.90;98.60;;;;;;4951687;28;20034;-70
2021/04/08 00:40:43;;;;;;;7.78;2.13;;;2.90;98.60;;;;;;4951758;29;20020;-70
2021/04/08 00:43:09;;;;;;;9.85;1.83;;;2.90;98.80;;;;;;4951551;29;20054;-70
2021/04/08 00:45:34;;;;;;;5.90;1.95;;;2.90;98.90;;;;;;4951699;28;20027;-70
2021/04/08 00:48:00;;;;;;;7.35;2.10;;;2.90;99.00;;;;;;4951584;29;20470;-70
2021/04/08 00:50:27;;;;;;;8.02;2.50;;;2.80;99.20;;;;;;5017824;28;20023;-70
2021/04/08 00:53:01;;;;;;;8.50;1.90;;;2.80;98.90;;;;;;4951284;29;20126;-70
2021/04/08 00:55:42;;;;;;;8.65;2.20;;;2.80;99.10;;;;;;4951489;29;20034;-70
2021/04/08 00:58:08;;;;;;;8.80;1.85;;;2.80;99.10;;;;;;4951476;29;20390;-70
2021/04/08 01:00:36;;;;;;;11.70;2.25;;;2.80;99.10;;;;;;4951513;28;20019;-70
2021/04/08 01:03:02;;;;;;;6.93;2.40;;;2.80;99.10;;;;;;4951174;29;20023;-70
2021/04/08 01:05:28;;;;;;;6.07;2.22;;;2.70;99.30;;;;;;4951495;29;20030;-70
2021/04/08 01:07:54;;;;;;;7.68;2.35;;;2.60;99.50;;;;;;4951169;29;20548;-70
2021/04/08 01:10:22;;;;;;;9.13;2.15;;;2.50;99.70;;;;;;5017665;28;20043;-69
2021/04/08 01:12:52;;;;;;;7.68;2.45;;;2.50;99.80;;;;;;4951041;29;20055;-70
2021/04/08 01:15:19;;;;;;;7.57;2.58;;;2.50;99.80;;;;;;4951611;28;20482;-70
2021/04/08 01:18:01;;;;;;;12.70;2.67;;;2.50;99.90;;;;;;4950980;29;20054;-70
2021/04/08 01:20:45;;;;;;;10.88;2.70;;;2.40;99.90;;;;;;4951250;28;20035;-70
2021/04/08 01:23:29;;;;;;;9.50;2.88;;;2.50;99.70;;;;;;4951118;29;20027;-70
2021/04/08 01:26:18;;;;;;;7.65;2.40;;;2.40;99.80;;;;;;4951275;29;20058;-70
2021/04/08 01:28:49;;;;;;;8.40;2.70;;;2.40;99.70;;;;;;5017400;28;20057;-70
2021/04/08 01:31:17;;;;;;;7.25;2.55;;;2.40;99.90;;;;;;4950864;28;20024;-70
2021/04/08 01:33:54;;;;;;;8.10;2.45;;;2.40;99.70;;;;;;4951007;29;20023;-69
2021/04/08 01:36:26;;;;;;;9.82;2.72;;;2.30;99.80;;;;;;4951111;29;20027;-70
2021/04/08 01:39:00;;;;;;;6.93;2.50;;;2.30;99.80;;;;;;4950772;28;20080;-69
2021/04/08 01:41:27;;;;;;;8.07;2.58;;;2.20;99.80;;;;;;4950676;29;20489;-70
2021/04/08 01:43:56;;;;;;;6.40;2.03;;;2.20;99.90;;;;;;4950839;28;20037;-70
2021/04/08 01:46:24;;;;;;;5.32;1.95;;;2.10;99.90;;;;;;5016084;28;20114;-70
2021/04/08 01:48:53;;;;;;;8.35;2.65;;;2.10;99.90;;;;;;5016867;28;20031;-70
2021/04/08 01:51:20;;;;;;;6.93;2.83;;;2.10;99.90;;;;;;4950545;29;20027;-69
2021/04/08 01:53:56;;;;;;;9.70;2.70;;;2.00;99.90;;;;;;4950680;28;20028;-70
2021/04/08 01:56:26;;;;;;;9.57;2.70;;;1.90;99.90;;;;;;5016832;28;20474;-70
2021/04/08 01:58:52;;;;;;;13.05;3.03;;;1.90;99.90;;;;;;5016812;28;20031;-70
2021/04/08 02:01:19;;;;;;;10.80;2.65;;;1.80;99.90;;;;;;5016737;28;20022;-69
2021/04/08 02:03:47;;;;;;;7.35;2.63;;;1.80;99.90;;;;;;4950710;29;20016;-70
2021/04/08 02:06:12;;;;;;;7.88;2.55;;;1.80;99.90;;;;;;4950509;29;20033;-70
2021/04/08 02:08:41;;;;;;;9.57;3.00;;;1.90;99.90;;;;;;4950625;28;20023;-70
2021/04/08 02:11:11;;;;;;;9.40;3.65;;;1.80;99.90;;;;;;5016495;28;20027;-70
2021/04/08 02:13:37;;;;;;;7.38;2.72;;;1.70;99.90;;;;;;4950350;28;20023;-70
2021/04/08 02:16:05;;;;;;;14.35;3.45;;;1.60;99.90;;;;;;4950441;28;20110;-70
2021/04/08 02:18:31;;;;;;;8.98;3.30;;;1.50;99.90;;;;;;5015997;28;20031;-70
2021/04/08 02:21:12;;;;;;;8.15;3.40;;;1.50;99.90;;;;;;4953078;28;20130;-70
2021/04/08 02:23:43;;;;;;;8.57;3.03;;;1.50;99.90;;;;;;4950233;29;20110;-70
2021/04/08 02:26:10;;;;;;;9.43;3.00;;;1.60;99.90;;;;;;4950374;29;20089;-70
2021/04/08 02:28:38;;;;;;;8.45;3.25;;;1.70;99.90;;;;;;4950176;29;20118;-70
2021/04/08 02:31:04;;;;;;;9.05;2.90;;;1.70;99.90;;;;;;4950142;29;20065;-69
2021/04/08 02:33:31;;;;;;;11.80;2.97;;;1.70;99.90;;;;;;4949955;28;20513;-70
2021/04/08 02:35:59;;;;;;;8.10;2.47;;;1.80;99.90;;;;;;4950040;29;20036;-70
2021/04/08 02:38:30;;;;;;;11.93;3.05;;;1.90;99.90;;;;;;4950197;28;20118;-70
2021/04/08 02:40:57;;;;;;;7.57;2.70;;;2.00;99.90;;;;;;4950042;29;20028;-70
2021/04/08 02:43:23;;;;;;;12.55;2.83;;;2.10;99.90;;;;;;4949808;28;20027;-70
2021/04/08 02:45:49;;;;;;;8.55;2.75;;;2.20;99.90;;;;;;4949913;28;20182;-69
2021/04/08 02:48:16;;;;;;;12.15;3.05;;;2.30;99.90;;;;;;4949915;29;20035;-69
2021/04/08 02:50:48;;;;;;;9.57;2.97;;;2.30;99.90;;;;;;5015929;28;20037;-70
2021/04/08 02:53:26;;;;;;;7.32;2.38;;;2.30;99.80;;;;;;4949010;28;20031;-69
2021/04/08 02:56:02;;;;;;;13.45;3.53;;;2.30;99.70;;;;;;4949937;28;20110;-69
2021/04/08 02:58:31;;;;;;;7.28;2.75;;;2.30;99.80;;;;;;4952065;29;20428;-69
2021/04/08 03:01:04;;;;;;;13.50;2.80;;;2.30;99.70;;;;;;5020128;28;20367;-70
2021/04/08 03:03:47;;;;;;;11.93;2.67;;;2.20;99.90;;;;;;5019742;28;20023;-70
2021/04/08 03:06:15;;;;;;;11.05;2.92;;;2.20;99.80;;;;;;4953168;29;20027;-70
2021/04/08 03:08:42;;;;;;;15.23;3.15;;;2.10;99.90;;;;;;4953255;29;20382;-70
2021/04/08 03:11:10;;;;;;;9.10;2.67;;;2.20;99.60;;;;;;5019905;28;20030;-70
2021/04/08 03:13:41;;;;;;;9.98;2.58;;;2.40;99.30;;;;;;4953121;29;20059;-70
2021/04/08 03:16:19;;;;;;;10.40;2.75;;;2.40;99.30;;;;;;5019966;28;20038;-70
2021/04/08 03:18:48;;;;;;;9.73;3.38;;;2.40;99.60;;;;;;4952869;29;20031;-72
2021/04/08 03:21:15;;;;;;;8.40;3.45;;;2.40;99.50;;;;;;4952977;28;20019;-72
2021/04/08 03:23:42;;;;;;;12.90;3.47;;;2.40;99.40;;;;;;4953258;29;20024;-69
2021/04/08 03:26:08;;;;;;;10.55;3.20;;;2.50;99.50;;;;;;5019607;28;20034;-70
2021/04/08 03:28:37;;;;;;;11.05;3.47;;;2.50;99.40;;;;;;4952845;28;20023;-70
2021/04/08 03:31:04;;;;;;;9.55;2.78;;;2.40;99.50;;;;;;4952801;28;20045;-70
2021/04/08 03:33:32;;;;;;;8.52;3.25;;;2.50;99.60;;;;;;4952655;28;20085;-70
2021/04/08 03:35:58;;;;;;;10.50;3.35;;;2.40;99.50;;;;;;4952827;29;20029;-70
2021/04/08 03:38:24;;;;;;;12.20;3.58;;;2.50;99.60;;;;;;4952598;29;20031;-70
2021/04/08 03:40:50;;;;;;;9.30;3.20;;;2.40;99.70;;;;;;5019322;28;20034;-70
2021/04/08 03:43:17;;;;;;;9.88;3.30;;;2.40;99.80;;;;;;4952397;29;20033;-70
2021/04/08 03:45:42;;;;;;;10.93;2.80;;;2.30;99.90;;;;;;5019177;28;20062;-69
2021/04/08 03:48:12;;;;;;;15.95;3.15;;;2.40;99.30;;;;;;4952519;29;20027;-70
2021/04/08 03:50:40;;;;;;;11.45;3.05;;;2.40;99.40;;;;;;5019128;28;20032;-70
2021/04/08 03:53:07;;;;;;;12.50;3.20;;;2.40;99.50;;;;;;4952334;28;20114;-70
2021/04/08 03:55:34;;;;;;;8.13;2.55;;;2.40;99.40;;;;;;4952464;28;20100;-70
2021/04/08 03:58:03;;;;;;;12.73;2.75;;;2.50;98.70;;;;;;4952276;29;20024;-69
2021/04/08 04:00:29;;;;;;;13.77;3.00;;;2.40;99.10;;;;;;4952312;29;20128;-70
2021/04/08 04:02:55;;;;;;;12.30;2.80;;;2.50;99.20;;;;;;4952288;29;20510;-70
2021/04/08 04:05:22;;;;;;;11.40;2.70;;;2.40;99.30;;;;;;4952532;29;20058;-70
2021/04/08 04:07:50;;;;;;;12.25;3.22;;;2.50;99.40;;;;;;4952234;28;20019;-69
2021/04/08 04:10:17;;;;;;;7.80;2.65;;;2.50;99.10;;;;;;4951247;28;20094;-70
2021/04/08 04:12:44;;;;;;;12.52;3.15;;;2.50;98.90;;;;;;5018426;28;20043;-70
2021/04/08 04:15:11;;;;;;;9.73;2.90;;;2.50;99.10;;;;;;4952105;29;20085;-69
2021/04/08 04:17:36;;;;;;;12.18;3.20;;;2.40;99.20;;;;;;5018120;28;20114;-70
2021/04/08 04:20:05;;;;;;;11.65;3.05;;;2.40;99.40;;;;;;4952069;29;20062;-70
2021/04/08 04:22:35;;;;;;;11.32;3.67;;;2.40;99.50;;;;;;4951874;29;20024;-70
2021/04/08 04:25:01;;;;;;;16.88;3.47;;;2.30;99.80;;;;;;4952055;29;20023;-70
2021/04/08 04:27:26;;;;;;;10.73;2.63;;;2.30;99.80;;;;;;4951876;29;20034;-69
2021/04/08 04:29:52;;;;;;;10.65;3.35;;;2.30;99.60;;;;;;4952067;29;20382;-69
2021/04/08 04:32:17;;;;;;;10.27;3.28;;;2.30;99.60;;;;;;4951778;29;20032;-70
2021/04/08 04:34:44;;;;;;;10.63;3.50;;;2.30;99.90;;;;;;4951883;29;20436;-70
2021/04/08 04:37:10;;;;;;;14.07;4.15;;;2.30;99.60;;;;;;4951795;29;20027;-71
2021/04/08 04:39:37;;;;;;;15.75;3.88;;;2.40;99.50;;;;;;4957898;28;20136;-72
2021/04/08 04:42:04;;;;;;;12.50;3.97;;;2.40;99.40;;;;;;5034018;28;20031;-72
2021/04/08 04:44:29;;;;;;;10.75;3.78;;;2.40;99.40;;;;;;4964574;28;20019;-71
2021/04/08 04:46:59;;;;;;;12.05;4.35;;;2.40;99.40;;;;;;5027868;28;20781;-71
2021/04/08 04:49:25;;;;;;;15.70;4.75;;;2.50;99.20;;;;;;4965648;28;20172;-70
2021/04/08 04:51:50;;;;;;;12.98;4.63;;;2.40;99.20;;;;;;5032466;28;20118;-70
2021/04/08 04:54:16;;;;;;;12.85;3.17;;;2.40;99.40;;;;;;4963988;28;20466;-70
2021/04/08 04:56:42;;;;;;;11.70;3.65;;;2.40;99.40;;;;;;4965962;23;20044;-70
2021/04/08 04:59:07;;;;;;;10.23;3.80;;;2.40;99.10;;;;;;4913037;29;20448;-70
2021/04/08 05:01:33;;;;;;;18.85;4.63;;;2.40;99.20;;;;;;4911662;29;20028;-70
2021/04/08 05:03:58;;;;;;;13.15;3.58;;;2.40;99.40;;;;;;4912148;29;20039;-71
2021/04/08 05:06:24;;;;;;;9.45;3.88;;;2.50;99.20;;;;;;4984406;28;20023;-70
2021/04/08 05:08:50;;;;;;;11.82;4.10;;;2.40;99.10;;;;;;4922237;29;20024;-70
2021/04/08 05:11:15;;;;;;;10.73;3.95;;;2.40;99.20;;;;;;4920446;29;20071;-70
2021/04/08 05:13:41;;;;;;;17.17;4.30;;;2.40;99.20;;;;;;4980762;28;20594;-70
2021/04/08 05:16:07;;;;;;;10.15;3.88;;;2.50;99.30;;;;;;4978604;28;20032;-70
2021/04/08 05:18:32;;;;;;;18.08;4.07;;;2.50;99.20;;;;;;4978572;28;20028;-70
2021/04/08 05:20:59;;;;;;;12.68;3.92;;;2.50;99.20;;;;;;4978580;28;20111;-70
2021/04/08 05:23:24;;;;;;;17.70;3.70;;;2.40;99.30;;;;;;4978020;28;20071;-70
2021/04/08 05:25:51;;;;;;;12.85;4.05;;;2.40;99.20;;;;;;4913310;29;20024;-70
2021/04/08 05:28:16;;;;;;;12.20;4.28;;;2.50;99.20;;;;;;4978095;28;20433;-70
2021/04/08 05:30:42;;;;;;;14.93;3.38;;;2.50;99.10;;;;;;4912977;29;20029;-70
2021/04/08 05:33:08;;;;;;;14.85;3.83;;;2.40;99.10;;;;;;4912357;29;20085;-70
2021/04/08 05:35:34;;;;;;;8.88;3.80;;;2.40;99.20;;;;;;4913029;29;20066;-70
2021/04/08 05:37:59;;;;;;;12.65;3.50;;;2.40;99.20;;;;;;4978212;28;20166;-71
2021/04/08 05:40:25;;;;;;;15.73;3.58;;;2.40;99.10;;;;;;4977893;28;20024;-70
2021/04/08 05:42:51;;;;;;;14.73;4.30;;;2.50;99.00;;;;;;4977288;28;20024;-71
2021/04/08 05:45:18;;;;;;;10.93;3.78;;;2.50;98.90;;;;;;4912521;29;20032;-71
2021/04/08 05:47:44;;;;;;;13.93;3.67;;;2.60;98.80;;;;;;4912823;29;20024;-70
2021/04/08 05:50:10;;;;;;;14.30;3.42;;;2.80;98.30;;;;;;4994326;28;20041;-70
2021/04/08 05:52:36;;;;;;;9.63;3.63;;;3.00;98.30;;;;;;4912094;29;20035;-71
2021/04/08 05:55:02;;;;;;;10.05;4.10;;;3.10;98.30;;;;;;4921546;29;20490;-71
2021/04/08 05:57:28;;;;;;;11.45;4.03;;;3.20;98.10;;;;;;4921329;29;20047;-70
2021/04/08 05:59:54;;;;;;;11.80;3.63;;;3.20;98.10;;;;;;4987822;28;20030;-70
2021/04/08 06:02:20;;;;;;;14.18;4.10;;;3.10;98.10;;;;;;4990236;28;20030;-71
2021/04/08 06:04:45;;;;;;;13.50;4.13;;;3.10;98.20;;;;;;4930582;28;20020;-71
2021/04/08 06:07:11;;;;;;;13.15;4.20;;;3.00;98.10;;;;;;4930614;29;20111;-71
2021/04/08 06:09:36;;;;;;;8.43;3.60;;;3.10;98.30;;;;;;4996001;28;20037;-70
2021/04/08 06:12:02;;;;;;;9.13;3.42;;;3.30;98.10;;;;;;4995836;28;20058;-70
2021/04/08 06:14:28;;;;;;;14.40;4.30;;;3.40;97.80;;;;;;4930847;28;20066;-70
2021/04/08 06:16:55;;;;;;;8.18;3.53;;;3.50;97.60;;;;;;4995515;28;20032;-70
2021/04/08 06:19:20;;;;;;;12.30;3.55;;;3.60;97.60;;;;;;4930474;29;20039;-71
2021/04/08 06:21:46;;;;;;;16.30;4.30;;;3.60;97.40;;;;;;4995816;28;20468;-71
2021/04/08 06:24:12;;;;;;;9.60;3.53;;;3.60;97.60;;;;;;4995260;28;20020;-70
2021/04/08 06:26:37;;;;;;;10.70;3.90;;;3.60;97.40;;;;;;4930370;29;20371;-71
2021/04/08 06:29:03;;;;;;;11.00;3.92;;;3.70;97.40;;;;;;4995723;28;20034;-70
2021/04/08 06:31:29;;;;;;;8.32;3.33;;;3.70;97.00;;;;;;4929391;28;20024;-72
2021/04/08 06:33:54;;;;;;;17.08;4.57;;;3.80;96.70;;;;;;4929893;29;20032;-71
2021/04/08 06:36:21;;;;;;;7.55;3.75;;;3.80;96.60;;;;;;4930219;29;20028;-71
2021/04/08 06:38:49;;;;;;;10.50;4.97;;;3.80;96.70;;;;;;4930189;29;20482;-71
2021/04/08 06:41:16;;;;;;;13.98;3.65;;;3.80;97.00;;;;;;4984662;28;20020;-70
2021/04/08 06:43:43;;;;;;;11.90;3.80;;;3.80;96.50;;;;;;4929422;28;20020;-70
2021/04/08 06:46:11;;;;;;;9.88;3.35;;;3.90;96.80;;;;;;4930123;29;20019;-70
2021/04/08 06:48:54;;;;;;;10.07;4.18;;;3.90;96.70;;;;;;4995711;28;20101;-70
2021/04/08 06:51:21;;;;;;;7.85;3.75;;;3.80;96.90;;;;;;4929552;29;20026;-70
2021/04/08 06:53:47;;;;;;;11.32;3.38;;;3.60;97.00;;;;;;4930300;29;20032;-70
2021/04/08 06:56:14;;;;;;;8.05;3.58;;;3.60;97.40;;;;;;4995606;28;20090;-70
2021/04/08 06:58:40;;;;;;;12.27;4.60;;;3.80;97.10;;;;;;4995337;28;20046;-70
2021/04/08 07:01:10;;;;;;;14.38;4.03;;;3.70;97.20;;;;;;4930019;29;20020;-70
2021/04/08 07:03:36;;;;;;;14.48;3.78;;;3.80;97.20;;;;;;4929815;28;20039;-70
2021/04/08 07:06:02;;;;;;;13.07;3.70;;;3.80;97.00;;;;;;4942293;28;20027;-70
2021/04/08 07:08:32;;;;;;;11.23;3.58;;;4.00;97.10;;;;;;4995447;28;20115;-70
2021/04/08 07:10:59;;;;;;;10.80;3.40;;;4.20;96.90;;;;;;4995286;28;20058;-70
2021/04/08 07:13:32;;;;;;;12.55;3.60;;;4.20;96.40;;;;;;4929454;29;20110;-70
2021/04/08 07:15:59;;;;;;;11.38;4.53;;;4.30;96.50;;;;;;4929474;29;20028;-70
2021/04/08 07:18:25;;;;;;;14.27;4.32;;;4.30;95.70;;;;;;4929280;29;20028;-71
2021/04/08 07:20:52;;;;;;;16.30;5.80;;;4.40;96.20;;;;;;4929979;29;20051;-70
2021/04/08 07:23:18;;;;;;;12.55;3.65;;;4.50;96.50;;;;;;4995123;28;20032;-70
2021/04/08 07:26:09;;;;;;;9.68;3.80;;;4.50;95.00;;;;;;4929113;29;20020;-70
2021/04/08 07:28:40;;;;;;;16.80;5.28;;;4.50;95.90;;;;;;4995231;28;20043;-70
2021/04/08 07:31:29;;;;;;;12.63;3.60;;;4.70;95.50;;;;;;4929153;29;20035;-70
2021/04/08 07:33:58;;;;;;;6.22;3.05;;;5.00;94.70;;;;;;4995191;28;20024;-70
2021/04/08 07:36:29;;;;;;;13.40;4.15;;;5.10;94.40;;;;;;4928930;29;20020;-70
2021/04/08 07:38:55;;;;;;;10.63;3.53;;;5.10;94.50;;;;;;4983083;28;20038;-72
2021/04/08 07:41:35;;;;;;;9.32;3.78;;;5.00;93.90;;;;;;4985551;28;20055;-72
2021/04/08 07:44:07;;;;;;;9.30;3.30;;;5.00;94.50;;;;;;4931028;28;20031;-73
2021/04/08 07:46:44;;;;;;;10.88;3.72;;;5.10;93.70;;;;;;4986413;28;20024;-72
2021/04/08 07:49:32;;;;;;;10.43;3.63;;;4.90;94.60;;;;;;4998961;28;20036;-72
2021/04/08 07:52:17;;;;;;;11.30;3.42;;;4.90;94.30;;;;;;4932065;29;20505;-72
2021/04/08 07:54:59;;;;;;;15.60;4.20;;;4.80;94.40;;;;;;4998877;28;20036;-71
2021/04/08 07:57:25;;;;;;;16.00;4.80;;;4.80;94.10;;;;;;4998164;28;20516;-71
2021/04/08 07:59:51;;;;;;;14.63;4.13;;;4.80;94.00;;;;;;4998523;28;20028;-70
2021/04/08 08:02:21;;;;;;;11.70;3.65;;;4.70;94.30;;;;;;4997631;28;20028;-71
2021/04/08 08:04:46;;;;;;;11.95;3.50;;;4.70;94.60;;;;;;4932777;29;20367;-70
2021/04/08 08:07:27;;;;;;;13.50;3.65;;;4.80;93.80;;;;;;4932034;28;20054;-71
2021/04/08 08:09:52;;;;;;;15.13;3.63;;;5.10;94.10;;;;;;4932759;29;20481;-70
2021/04/08 08:12:18;;;;;;;8.88;3.35;;;5.20;93.00;;;;;;4931900;29;20043;-70
2021/04/08 08:14:44;;;;;;;10.82;3.63;;;5.30;93.50;;;;;;4932086;28;20032;-71
2021/04/08 08:17:14;;;;;;;12.13;3.45;;;5.70;93.40;;;;;;4932164;29;20035;-71
2021/04/08 08:19:43;;;;;;;9.82;3.30;;;5.90;92.50;;;;;;4932526;29;20031;-71
2021/04/08 08:22:18;;;;;;;13.15;3.90;;;6.20;90.50;;;;;;4931885;28;20019;-71
2021/04/08 08:25:00;;;;;;;10.73;3.25;;;6.00;91.80;;;;;;4931953;29;20020;-71
2021/04/08 08:27:50;;;;;;;13.02;3.20;;;5.80;91.40;;;;;;4931992;29;20379;-70
2021/04/08 08:30:52;;;;;;;8.32;2.47;;;5.70;91.20;;;;;;4921504;29;20078;-71
2021/04/08 08:33:19;;;;;;;14.23;3.95;;;5.40;91.70;;;;;;4931705;28;20634;-71
2021/04/08 08:35:45;;;;;;;13.75;3.17;;;5.40;91.50;;;;;;4997935;28;20058;-70
2021/04/08 08:38:19;;;;;;;10.05;3.58;;;5.50;92.30;;;;;;4985882;28;20457;-71
2021/04/08 08:40:47;;;;;;;11.27;3.47;;;5.70;91.90;;;;;;4985616;28;20059;-71
2021/04/08 08:43:14;;;;;;;11.50;4.57;;;5.90;93.50;;;;;;4964646;28;20020;-70
2021/04/08 08:45:41;;;;;;;9.52;4.72;;;6.10;91.90;;;;;;4997655;28;20024;-70
2021/04/08 08:48:19;;;;;;;13.13;3.35;;;6.10;91.40;;;;;;4931937;28;20043;-71
2021/04/08 08:50:44;;;;;;;12.65;3.50;;;6.00;91.80;;;;;;4997848;28;20545;-70
2021/04/08 08:53:13;;;;;;;7.85;2.97;;;5.90;90.60;;;;;;4931797;29;20023;-71
2021/04/08 08:55:39;;;;;;;11.27;3.20;;;5.80;91.30;;;;;;4930567;28;20031;-71
2021/04/08 08:58:06;;;;;;;12.98;3.28;;;6.20;91.10;;;;;;4931832;29;20151;-71
2021/04/08 09:00:32;;;;;;;6.30;2.47;;;6.30;89.20;;;;;;4931606;28;20020;-71
2021/04/08 09:03:00;;;;;;;8.05;2.70;;;6.20;89.40;;;;;;4931603;29;20024;-71
2021/04/08 09:05:30;;;;;;;12.90;3.17;;;6.20;87.90;;;;;;4931705;29;20496;-71
2021/04/08 09:08:06;;;;;;;9.88;2.90;;;6.20;89.40;;;;;;4994618;28;20402;-71
2021/04/08 09:10:36;;;;;;;10.05;2.90;;;6.40;89.30;;;;;;4997358;28;20039;-71
2021/04/08 09:13:01;;;;;;;11.75;3.65;;;6.40;90.30;;;;;;4931495;29;20031;-71
2021/04/08 09:15:27;;;;;;;8.52;2.90;;;6.50;89.50;;;;;;4981140;28;20032;-71
2021/04/08 09:18:01;;;;;;;17.73;6.85;;;6.40;88.80;;;;;;4995232;28;20078;-71
2021/04/08 09:20:28;;;;;;;10.50;2.55;;;6.40;86.80;;;;;;4997063;28;20114;-71
2021/04/08 09:23:00;;;;;;;10.35;2.40;;;6.40;85.00;;;;;;4996538;28;20027;-71
2021/04/08 09:25:36;;;;;;;13.55;2.80;;;6.60;85.60;;;;;;4996513;28;20046;-71
2021/04/08 09:28:08;;;;;;;6.78;2.10;;;6.90;88.10;;;;;;4930749;29;20238;-71
2021/04/08 09:30:55;;;;;;;9.88;2.40;;;7.30;86.50;;;;;;4997539;28;20410;-71
2021/04/08 09:33:41;;;;;;;10.52;3.00;;;7.10;80.30;;;;;;4996113;28;20023;-71
2021/04/08 09:36:22;;;;;;;14.93;3.22;;;6.50;82.20;;;;;;4986188;28;20394;-71
2021/04/08 09:39:11;;;;;;;7.65;2.47;;;6.30;86.90;;;;;;4994326;28;20028;-72
2021/04/08 09:41:54;;;;;;;12.32;2.53;;;6.40;87.00;;;;;;4926502;28;20032;-71
2021/04/08 09:44:21;;;;;;;10.52;2.90;;;6.40;85.30;;;;;;4928742;29;20027;-71
2021/04/08 09:46:53;;;;;;;10.30;2.88;;;6.10;88.00;;;;;;4927888;28;21182;-71
2021/04/08 09:49:37;;;;;;;9.45;2.60;;;6.00;88.00;;;;;;4929266;29;20038;-71
2021/04/08 09:52:02;;;;;;;8.60;2.80;;;6.00;87.70;;;;;;4994117;28;20081;-70
2021/04/08 09:54:57;;;;;;;7.95;2.47;;;6.30;89.10;;;;;;4994755;28;20040;-70
2021/04/08 09:57:41;;;;;;;9.48;2.47;;;6.60;87.60;;;;;;4984005;28;20032;-70
2021/04/08 10:00:13;;;;;;;9.65;3.00;;;6.60;87.80;;;;;;4992485;28;20122;-70
2021/04/08 10:02:55;;;;;;;5.47;2.20;;;6.60;88.10;;;;;;4995831;28;20093;-71
2021/04/08 10:05:20;;;;;;;7.07;2.25;;;6.70;88.00;;;;;;4949440;28;20026;-71
2021/04/08 10:07:54;;;;;;;7.22;2.33;;;6.70;89.00;;;;;;5010359;28;20091;-75
2021/04/08 10:10:37;;;;;;;8.70;1.90;;;6.60;84.40;;;;;;4992631;28;20659;-72
2021/04/08 10:13:18;;;;;;;6.32;2.72;;;6.60;83.40;;;;;;4993063;28;20083;-73
2021/04/08 10:15:44;;;;;;;;;;;6.60;84.40;;;;;;4994365;28;20030;-72
2021/04/08 10:18:21;;;;;;;6.25;2.20;;;6.80;83.80;;;;;;5011574;28;19909;-74
2021/04/08 10:20:49;;;;;;;6.72;2.17;;;6.90;85.10;;;;;;4994002;28;20427;-72
2021/04/08 10:23:29;;;;;;;6.07;1.70;;;6.50;86.30;;;;;;4993725;28;20022;-75
2021/04/08 10:25:57;;;;;;;6.30;1.45;;;6.50;83.40;;;;;;5011426;28;20022;-73
2021/04/08 10:28:22;;;;;;;8.48;1.77;;;6.50;82.30;;;;;;5011445;28;20033;-73
2021/04/08 10:30:48;;;;;;;7.20;2.00;;;6.60;82.40;;;;;;4993909;28;20621;-73
2021/04/08 10:33:18;;;;;;;5.20;1.70;;;6.70;83.80;;;;;;5011326;28;20068;-72
2021/04/08 10:35:44;;;;;;;7.20;2.60;;;6.80;83.50;;;;;;5011429;28;20493;-73
2021/04/08 10:38:11;;;;;;;6.65;2.25;;;6.80;84.60;;;;;;4993734;28;20034;-73
2021/04/08 10:40:37;;;;;;;8.93;2.83;;;6.80;84.50;;;;;;4993664;28;20125;-73
2021/04/08 10:43:16;;;;;;;6.45;2.22;;;6.90;84.10;;;;;;5010953;28;20029;-74
2021/04/08 10:45:51;;;;;;;8.00;2.75;;;6.70;87.10;;;;;;4993467;28;20025;-72
2021/04/08 10:48:17;;;;;;;8.88;2.90;;;6.60;88.60;;;;;;5011004;28;20029;-73
2021/04/08 10:50:43;;;;;;;9.00;2.70;;;6.40;90.50;;;;;;4990164;28;20094;-73
2021/04/08 10:53:09;;;;;;;10.40;2.97;;;6.30;90.60;;;;;;4930871;29;20028;-73
2021/04/08 10:55:36;;;;;;;8.50;2.75;;;6.40;90.50;;;;;;4953133;23;20074;-70
2021/04/08 10:58:01;;;;;;;11.88;2.60;;;6.60;89.80;;;;;;4911745;28;20156;-70
2021/04/08 11:00:27;;;;;;;7.70;2.60;;;6.80;88.10;;;;;;4912154;28;20056;-70
2021/04/08 11:02:53;;;;;;;12.57;2.35;;;6.90;86.90;;;;;;4911316;28;20047;-70
2021/04/08 11:05:21;;;;;;;7.68;2.40;;;7.10;84.50;;;;;;4976983;28;20024;-70
2021/04/08 11:07:49;;;;;;;7.82;2.75;;;7.10;83.10;;;;;;4976790;28;20028;-70
2021/04/08 11:10:21;;;;;;;13.23;2.80;;;7.00;85.10;;;;;;4912052;28;20035;-70
2021/04/08 11:12:48;;;;;;;10.07;2.63;;;7.10;84.70;;;;;;4976254;28;20105;-69
2021/04/08 11:15:14;;;;;;;10.32;2.83;;;7.10;82.00;;;;;;4911987;29;20482;-71
2021/04/08 11:17:48;;;;;;;7.53;2.13;;;7.00;81.40;;;;;;4911658;29;20502;-71
2021/04/08 11:20:16;;;;;;;6.38;1.83;;;7.10;82.50;;;;;;4914836;28;20020;-72
2021/04/08 11:22:44;;;;;;;7.22;1.80;;;7.30;74.10;;;;;;4979880;28;20461;-72
2021/04/08 11:25:13;;;;;;;5.35;1.60;;;7.30;74.80;;;;;;4914882;28;20027;-72
2021/04/08 11:27:43;;;;;;;5.95;1.63;;;7.60;72.40;;;;;;4914878;29;20517;-72
2021/04/08 11:30:19;;;;;;;7.32;1.70;;;7.80;71.70;;;;;;4914934;28;20082;-73
2021/04/08 11:32:44;;;;;;;4.68;1.60;;;8.10;72.40;;;;;;4979832;28;20032;-71
2021/04/08 11:35:24;;;;;;;6.82;2.00;;;8.30;67.70;;;;;;4914903;28;20107;-71
2021/04/08 11:38:01;;;;;;;6.93;1.85;;;7.90;66.40;;;;;;4914801;28;20545;-71
2021/04/08 11:40:27;;;;;;;4.72;1.80;;;7.50;70.50;;;;;;4914744;29;20090;-71
2021/04/08 11:42:53;;;;;;;6.93;2.25;;;7.40;73.70;;;;;;4979552;28;20028;-71
2021/04/08 11:45:29;;;;;;;4.60;1.75;;;7.10;76.20;;;;;;4914649;29;20021;-71
2021/04/08 11:48:02;;;;;;;6.00;1.58;;;6.90;74.80;;;;;;4980029;28;20126;-71
2021/04/08 11:50:36;;;;;;;3.72;1.55;;;6.80;75.40;;;;;;4980024;28;20114;-71
2021/04/08 11:53:08;;;;;;;4.35;1.20;;;6.90;73.40;;;;;;4911284;28;20509;-71
2021/04/08 11:55:35;;;;;;;4.35;1.65;;;6.90;72.90;;;;;;4979230;28;20042;-71
2021/04/08 11:58:01;;;;;;;5.00;1.42;;;7.00;71.60;;;;;;4979443;28;20032;-71
2021/04/08 12:00:27;;;;;;;6.13;1.55;;;7.40;72.60;;;;;;4978691;28;20030;-71
2021/04/08 12:02:53;;;;;;;8.82;1.60;;;7.70;69.70;;;;;;4938940;28;20017;-70
2021/04/08 12:05:19;;;;;;;3.05;1.40;;;7.90;69.20;;;;;;5007774;28;20068;-70
2021/04/08 12:07:46;;;;;;;5.22;1.13;;;7.80;66.90;;;;;;4994777;28;20025;-70
2021/04/08 12:10:29;;;;;;;4.93;1.70;;;7.80;63.80;;;;;;5013884;28;20029;-70
2021/04/08 12:13:06;;;;;;;3.65;1.17;;;7.80;64.80;;;;;;4996382;28;20108;-71
2021/04/08 12:15:46;;;;;;;6.70;1.73;;;7.80;65.60;;;;;;5013753;28;20037;-70
2021/04/08 12:18:27;;;;;;;3.83;1.55;;;8.00;68.40;;;;;;5013617;28;20029;-71
2021/04/08 12:20:52;;;;;;;;;;;8.20;67.00;;;;;;4996423;28;20492;-71
2021/04/08 12:23:21;;;;;;;7.97;2.40;;;7.80;70.30;;;;;;5013278;28;19964;-71
2021/04/08 12:25:54;;;;;;;8.77;2.40;;;7.70;70.40;;;;;;4995961;28;20546;-71
2021/04/08 12:28:22;;;;;;;8.05;2.10;;;7.90;73.70;;;;;;4938391;28;20111;-71
2021/04/08 12:31:02;;;;;;;5.45;2.03;;;8.10;71.50;;;;;;4905173;28;20031;-70
2021/04/08 12:33:40;;;;;;;6.03;2.10;;;8.10;72.30;;;;;;4912836;28;20107;-70
2021/04/08 12:36:11;;;;;;;5.90;1.90;;;7.90;71.80;;;;;;4912507;28;20078;-70
2021/04/08 12:38:37;;;;;;;6.70;2.10;;;7.60;73.50;;;;;;4913250;28;20041;-70
2021/04/08 12:41:04;;;;;;;4.70;1.95;;;7.50;74.80;;;;;;4913327;28;20032;-70
2021/04/08 12:43:31;;;;;;;9.88;2.83;;;7.40;74.10;;;;;;4977703;28;20020;-70
2021/04/08 12:45:57;;;;;;;5.85;2.28;;;7.30;74.90;;;;;;4903759;28;20028;-70
2021/04/08 12:48:23;;;;;;;8.30;2.25;;;7.20;75.80;;;;;;4912563;28;20020;-70
2021/04/08 12:50:50;;;;;;;8.02;2.25;;;7.00;76.70;;;;;;4913163;28;20028;-70
2021/04/08 12:53:17;;;;;;;6.70;2.70;;;7.00;78.00;;;;;;4912854;28;20038;-70
2021/04/08 12:55:42;;;;;;;6.15;1.80;;;7.20;81.20;;;;;;4912154;28;20020;-70
2021/04/08 12:58:09;;;;;;;6.72;2.10;;;7.40;74.50;;;;;;4912080;28;20024;-70
2021/04/08 13:00:36;;;;;;;5.70;1.90;;;7.50;75.40;;;;;;4912759;28;20028;-70
2021/04/08 13:03:01;;;;;;;3.92;1.48;;;7.80;75.30;;;;;;4977681;28;20541;-70
2021/04/08 13:05:27;;;;;;;5.05;1.70;;;8.20;71.80;;;;;;4912626;28;20099;-70